Santa Monica, CA

12:47 AM PST die 20o February, anno 2017 (GMT -0800)
Santa Monica Municipal | | Change Station

Elev 174 ft 34.02 °N, 118.45 °W | Updated 17 minutes ago

Pluvia
Pluvia
53 °F
Feels Like 53 °F
N
5
Ventus Variabilis Ventus from Eurus

Hodie
High -- | Low -- °F
--% Chance of Precip.
Yesterday
High -- | Low -- °F
Precip. -- in
Pressio 30.18 in
Visibilitas 9.0 milia passuum
Clouds Nubes Dispersae 800 ft
Plerumque Nubila 1900 ft
Aequaliter Nubila 3400 ft
Frigus in quo Ros apparet 53 °F
Umor 100%
Rainfall 0.00 in
Snow Depth Not available.
6:32 AM 5:42 PM
Waning Crescent, 36% visible
SPECI KSMO 200830Z AUTO 10004KT 9SM -RA SCT008 BKN019 OVC034 12/12 A3018 RMK AO2 P0001 T01170117 $
Pressio 30.18 in
Visibilitas 9.0 milia passuum
Clouds Nubes Dispersae 800 ft
Plerumque Nubila 1900 ft
Aequaliter Nubila 3400 ft
Frigus in quo Ros apparet 53 °F
Umor 100%
Rainfall 0.00 in
Snow Depth Not available.
6:32 AM 5:42 PM
Waning Crescent, 36% visible
SPECI KSMO 200830Z AUTO 10004KT 9SM -RA SCT008 BKN019 OVC034 12/12 A3018 RMK AO2 P0001 T01170117 $

Get Your Daily Forecast Email!

Thanks for signing up!

Be on the lookout for a verification email in your inbox.

You'll start receiving the daily forecast at 8 AM.

×

10-Day Weather Forecast

Almanac

Astronomy

Feb. 20, 2017 Rise Set
Actual Time
Civil Twilight
Nautical Twilight
Astronomical Twilight
Moon
Length Of Visible Light
Length of Day
Tomorrow will be .
, % of the Moon is Illuminated

Today's Extremes

State Highs State Lows

Community

WunderPhotos

Upload Photos

1,962,540 photos uploaded!

WunderBlog® & News

Nearby

Air Quality

  Air Quality AQ Index Pollutant
Not available.

Snow Depth

Station Depth Elevation

Earthquake Activity

City Distance Mag. Time & Date
Minimum magnitude displayed is 2.5.

Coastal Water Temperatures

Locus Calor

Stations

Nearby Weather Stations

Station Location Temp Frigus Venti Frigus in quo Ros apparet Umor Ventus Precip. Elev Renovata Type
                   

Watches & Warnings

There are currently no watches in effect.